Time;durP1;ratioP1;P1;durP2;ratioP2;P2;SDS_P1;SDS_P2;PMS_P1;PMS_P2;Temp;Humidity;BMP_temperature;BMP_pressure;BME280_temperature;BME280_humidity;BME280_pressure;Samples;Min_cycle;Max_cycle;Signal;HPM_P1;HPM_P2
2023/04/10 00:01:43;;;;;;;76.10;39.63;;;2.60;99.90;;;3.41;100.00;101623.69;5067306;28;20037;-76
2023/04/10 00:04:09;;;;;;;77.10;38.50;;;2.60;99.90;;;3.46;100.00;101634.91;5067239;28;20032;-76
2023/04/10 00:06:34;;;;;;;75.05;38.03;;;2.60;99.90;;;3.44;100.00;101632.34;5062295;28;20048;-77
2023/04/10 00:09:00;;;;;;;71.72;37.88;;;2.60;99.90;;;3.43;100.00;101638.75;5067034;28;20086;-77
2023/04/10 00:11:26;;;;;;;71.68;37.38;;;2.50;99.90;;;3.34;100.00;101626.13;5053041;28;20040;-76
2023/04/10 00:13:54;;;;;;;68.50;36.38;;;2.50;99.90;;;3.26;100.00;101624.16;5062811;28;20040;-77
2023/04/10 00:16:21;;;;;;;79.70;40.50;;;2.50;99.90;;;3.29;100.00;101631.94;5067423;28;20036;-77
2023/04/10 00:18:47;;;;;;;80.07;39.55;;;2.40;99.90;;;3.19;100.00;101631.13;5066137;28;20049;-77
2023/04/10 00:21:12;;;;;;;70.72;37.35;;;2.40;99.90;;;3.05;100.00;101623.47;5078625;28;20386;-76
2023/04/10 00:23:38;;;;;;;71.00;37.95;;;2.30;99.90;;;2.91;100.00;101612.09;5067262;28;20029;-77
2023/04/10 00:26:04;;;;;;;77.90;38.60;;;2.20;99.90;;;2.89;100.00;101614.09;5064805;28;20056;-77
2023/04/10 00:28:30;;;;;;;73.13;39.35;;;2.20;99.90;;;2.78;100.00;101604.31;5056489;28;20071;-77
2023/04/10 00:30:55;;;;;;;81.00;40.55;;;2.10;99.90;;;2.83;100.00;101623.63;5052887;28;20108;-77
2023/04/10 00:33:21;;;;;;;81.88;41.95;;;2.10;99.90;;;3.15;100.00;101613.50;5063045;28;20036;-77
2023/04/10 00:35:47;;;;;;;85.60;42.22;;;2.50;99.90;;;3.33;100.00;101610.09;5063768;28;20036;-76
2023/04/10 00:38:13;;;;;;;87.65;43.05;;;2.70;99.90;;;3.28;100.00;101614.06;5062256;28;20044;-76
2023/04/10 00:40:40;;;;;;;93.53;45.45;;;2.80;99.90;;;3.09;100.00;101587.13;5039409;28;20348;-76
2023/04/10 00:43:06;;;;;;;91.28;44.22;;;2.80;99.90;;;3.27;100.00;101596.19;5064143;28;20356;-77
2023/04/10 00:45:31;;;;;;;91.55;44.92;;;2.80;99.90;;;3.24;100.00;101584.81;5063927;28;20106;-77
2023/04/10 00:47:58;;;;;;;95.85;46.55;;;2.90;99.90;;;3.36;100.00;101582.81;5057917;28;20044;-77
2023/04/10 00:50:24;;;;;;;94.05;46.22;;;3.00;99.90;;;3.42;100.00;101587.63;5060847;28;20029;-76
2023/04/10 00:52:50;;;;;;;93.95;46.00;;;3.00;99.90;;;3.41;100.00;101580.53;5082827;28;20036;-76
2023/04/10 00:55:17;;;;;;;92.53;45.03;;;3.00;99.90;;;3.61;100.00;101578.63;5065212;28;20056;-77
2023/04/10 00:57:45;;;;;;;82.05;42.00;;;3.10;99.90;;;3.79;100.00;101580.53;5050055;28;20641;-77
2023/04/10 01:00:16;;;;;;;81.72;39.00;;;3.20;99.90;;;3.92;100.00;101580.19;5062930;28;20028;-77
2023/04/10 01:02:41;;;;;;;76.93;38.25;;;3.20;99.90;;;3.92;100.00;101582.88;5066607;28;20032;-76
2023/04/10 01:05:11;;;;;;;81.35;41.22;;;3.20;99.90;;;3.93;100.00;101588.13;5055791;28;20450;-76
2023/04/10 01:08:09;;;;;;;83.10;40.90;;;3.20;99.90;;;4.08;100.00;101593.88;5059068;28;20072;-77
2023/04/10 01:10:55;;;;;;;80.35;40.97;;;3.30;99.90;;;4.30;100.00;101602.56;5055070;28;20134;-77
2023/04/10 01:13:54;;;;;;;79.38;41.10;;;3.20;99.90;;;4.03;100.00;101597.03;5070238;28;20060;-77
2023/04/10 01:16:29;;;;;;;74.57;37.83;;;3.20;99.90;;;4.03;100.00;101597.03;5050319;28;20491;-77
2023/04/10 01:19:25;;;;;;;79.80;39.50;;;3.20;99.90;;;4.03;100.00;101580.00;5030969;28;20052;-76
2023/04/10 01:21:54;;;;;;;81.75;40.25;;;3.30;99.90;;;4.08;100.00;101602.00;5041565;28;20044;-76
2023/04/10 01:24:34;;;;;;;78.22;40.47;;;3.30;99.90;;;4.13;100.00;101604.25;5061458;28;20086;-76
2023/04/10 01:27:15;;;;;;;76.47;40.08;;;3.30;99.90;;;4.15;100.00;101605.78;5052559;28;20579;-76
2023/04/10 01:29:54;;;;;;;77.05;39.25;;;3.30;99.90;;;4.17;100.00;101609.19;5052898;28;20029;-76
2023/04/10 01:32:23;;;;;;;72.68;38.40;;;3.30;99.90;;;3.89;100.00;101570.53;5066137;28;20047;-76
2023/04/10 01:34:55;;;;;;;74.57;39.03;;;3.20;99.90;;;3.94;100.00;101592.53;5049286;28;20037;-76
2023/04/10 01:37:29;;;;;;;68.72;35.80;;;3.00;99.90;;;3.79;100.00;101610.22;5056165;28;20043;-75
2023/04/10 01:40:07;;;;;;;72.00;36.20;;;2.80;99.90;;;3.66;100.00;101613.25;5057572;28;20110;-75
2023/04/10 01:42:40;;;;;;;70.10;35.93;;;2.70;99.90;;;3.55;100.00;101614.28;5078088;28;20366;-76
2023/04/10 01:45:11;;;;;;;71.47;36.35;;;2.50;99.90;;;3.57;100.00;101613.13;5065345;28;20289;-74
2023/04/10 01:47:36;;;;;;;69.15;36.78;;;2.40;99.90;;;3.49;100.00;101604.94;5041385;28;20055;-77
2023/04/10 01:50:05;;;;;;;69.00;34.97;;;2.40;99.90;;;3.53;100.00;101614.44;5067559;28;20032;-77
2023/04/10 01:52:34;;;;;;;71.85;36.00;;;2.30;99.90;;;3.15;100.00;101598.19;5072839;28;20034;-76
2023/04/10 01:55:08;;;;;;;68.60;36.90;;;2.30;99.90;;;3.05;100.00;101591.13;5081881;28;20037;-76
2023/04/10 01:57:45;;;;;;;66.05;36.05;;;2.20;99.90;;;3.05;100.00;101597.38;5083096;28;20036;-77
2023/04/10 02:00:11;;;;;;;;;;;2.10;99.90;;;3.07;100.00;101591.81;5064170;28;20059;-77
2023/04/10 02:02:43;;;;;;;65.38;34.00;;;2.00;99.90;;;2.85;100.00;101570.44;5068975;28;19917;-77
2023/04/10 02:05:09;;;;;;;76.60;39.92;;;2.00;99.90;;;2.97;100.00;101592.69;5082105;28;20380;-76
2023/04/10 02:08:04;;;;;;;74.03;39.38;;;2.00;99.90;;;3.00;100.00;101580.75;5064310;28;20025;-76
2023/04/10 02:10:42;;;;;;;80.70;40.45;;;2.10;99.90;;;3.05;100.00;101591.13;5057350;28;20451;-76
2023/04/10 02:13:11;;;;;;;82.20;39.83;;;2.10;99.90;;;3.23;100.00;101585.81;5056156;28;20044;-75
2023/04/10 02:15:45;;;;;;;83.85;42.30;;;2.20;99.90;;;3.06;100.00;101582.91;5041518;28;20386;-75
2023/04/10 02:18:15;;;;;;;82.65;41.40;;;2.20;99.90;;;3.12;100.00;101568.81;5050095;28;20063;-76
2023/04/10 02:20:41;;;;;;;82.53;40.63;;;2.30;99.90;;;3.10;100.00;101564.56;5054406;28;20044;-76
2023/04/10 02:23:07;;;;;;;76.03;39.78;;;2.30;99.90;;;3.02;100.00;101576.94;5061719;28;20085;-76
2023/04/10 02:25:35;;;;;;;76.60;39.83;;;2.10;99.90;;;2.91;100.00;101568.97;5063719;28;20163;-75
2023/04/10 02:28:06;;;;;;;80.97;39.72;;;2.00;99.90;;;2.86;100.00;101569.44;5066621;28;20384;-75
2023/04/10 02:30:33;;;;;;;74.75;38.95;;;2.00;99.90;;;2.79;100.00;101564.75;5063018;28;20032;-75
2023/04/10 02:32:59;;;;;;;77.18;38.42;;;1.90;99.90;;;2.87;100.00;101568.44;5033706;28;20029;-76
2023/04/10 02:35:28;;;;;;;81.40;40.15;;;2.10;99.90;;;2.98;100.00;101562.03;5086847;28;20075;-76
2023/04/10 02:37:54;;;;;;;88.23;40.20;;;2.20;99.90;;;2.94;100.00;101543.59;5067980;28;20064;-76
2023/04/10 02:40:20;;;;;;;85.68;40.83;;;2.20;99.90;;;2.96;100.00;101552.38;5065288;28;20123;-76
2023/04/10 02:42:54;;;;;;;92.28;42.38;;;2.20;99.90;;;2.96;100.00;101550.56;5067216;28;20037;-76
2023/04/10 02:45:20;;;;;;;88.95;42.88;;;2.20;99.90;;;2.87;100.00;101543.31;5067752;28;20049;-76
2023/04/10 02:47:47;;;;;;;84.47;43.10;;;2.10;99.90;;;2.87;100.00;101546.00;5067676;28;20121;-76
2023/04/10 02:50:12;;;;;;;78.85;40.85;;;2.10;99.90;;;2.88;100.00;101558.50;5080927;28;20108;-76
2023/04/10 02:52:42;;;;;;;88.70;41.05;;;2.10;99.90;;;2.84;100.00;101551.69;5053299;28;20218;-76
2023/04/10 02:55:08;;;;;;;80.07;40.13;;;2.00;99.90;;;2.82;100.00;101554.53;5059650;28;20039;-76
2023/04/10 02:57:36;;;;;;;83.80;41.83;;;2.00;99.90;;;2.87;100.00;101554.97;5079166;28;20036;-76
2023/04/10 03:00:04;;;;;;;78.38;39.60;;;2.00;99.90;;;2.89;100.00;101546.72;5062911;28;20033;-76
2023/04/10 03:02:44;;;;;;;81.57;41.25;;;2.10;99.90;;;2.88;100.00;101539.63;5073708;28;20211;-76
2023/04/10 03:05:15;;;;;;;77.78;38.63;;;2.10;99.90;;;2.97;100.00;101541.47;5078218;28;20474;-77
2023/04/10 03:07:41;;;;;;;79.60;39.08;;;2.10;99.90;;;2.97;100.00;101535.22;5068884;28;20043;-77
2023/04/10 03:10:08;;;;;;;80.65;38.20;;;2.10;99.90;;;2.94;100.00;101520.19;5060517;28;20037;-76
2023/04/10 03:12:34;;;;;;;75.22;38.67;;;2.10;99.90;;;3.11;100.00;101542.00;5062380;28;20025;-76
2023/04/10 03:14:59;;;;;;;78.97;38.50;;;2.20;99.90;;;3.15;100.00;101538.00;5061672;28;20041;-76
2023/04/10 03:17:25;;;;;;;77.80;38.20;;;2.20;99.90;;;3.09;100.00;101519.72;5069088;28;20111;-76
2023/04/10 03:19:52;;;;;;;77.93;38.20;;;2.20;99.90;;;3.17;100.00;101517.13;5077957;28;20079;-76
2023/04/10 03:22:18;;;;;;;77.28;37.58;;;2.20;99.90;;;3.30;100.00;101514.97;5064530;28;20025;-76
2023/04/10 03:24:44;;;;;;;76.15;38.25;;;2.20;99.90;;;3.37;100.00;101517.06;5073523;28;20086;-76
2023/04/10 03:27:11;;;;;;;74.45;37.28;;;2.20;99.90;;;3.37;100.00;101531.44;5062523;28;20029;-77
2023/04/10 03:29:37;;;;;;;73.63;36.90;;;2.20;99.90;;;3.33;100.00;101513.84;5066604;28;20048;-76
2023/04/10 03:32:04;;;;;;;77.82;39.90;;;2.20;99.90;;;3.43;100.00;101532.66;5084178;28;20028;-76
2023/04/10 03:34:31;;;;;;;80.13;38.47;;;2.10;99.90;;;3.08;100.00;101518.88;5064158;28;20029;-76
2023/04/10 03:36:56;;;;;;;78.07;37.90;;;2.10;99.90;;;2.91;100.00;101515.06;5084516;28;20045;-76
2023/04/10 03:39:23;;;;;;;75.78;36.78;;;2.00;99.90;;;2.75;100.00;101510.28;5059563;28;20089;-76
2023/04/10 03:41:50;;;;;;;75.55;37.17;;;1.80;99.90;;;2.53;100.00;101495.28;5061879;28;20154;-76
2023/04/10 03:44:18;;;;;;;65.93;35.53;;;1.70;99.90;;;2.40;100.00;101515.28;5066678;28;20121;-76
2023/04/10 03:46:43;;;;;;;67.57;35.17;;;1.60;99.90;;;2.36;100.00;101516.53;5067910;28;20550;-76
2023/04/10 03:49:09;;;;;;;72.32;34.35;;;1.40;99.90;;;2.11;100.00;101489.16;5054282;28;20045;-76
2023/04/10 03:51:35;;;;;;;72.72;34.60;;;1.30;99.90;;;2.19;100.00;101514.56;5051230;28;20037;-76
2023/04/10 03:54:01;;;;;;;66.13;34.00;;;1.30;99.90;;;2.14;100.00;101504.19;5068960;28;20039;-77
2023/04/10 03:56:27;;;;;;;61.70;33.10;;;1.20;99.90;;;2.07;100.00;101501.22;5068832;28;20083;-77
2023/04/10 03:58:53;;;;;;;60.95;31.98;;;1.10;99.90;;;2.02;100.00;101511.53;5056882;28;20124;-76
2023/04/10 04:01:19;;;;;;;67.75;33.72;;;1.10;99.90;;;1.85;100.00;101492.38;5081409;28;20121;-76
2023/04/10 04:04:14;;;;;;;66.82;33.22;;;1.00;99.90;;;1.72;100.00;101502.56;5062784;28;20349;-77
2023/04/10 04:06:49;;;;;;;78.72;37.90;;;0.90;99.90;;;1.89;100.00;101516.34;5066302;28;20070;-77
2023/04/10 04:09:54;;;;;;;74.20;37.80;;;1.10;99.90;;;1.80;100.00;101483.06;5025965;28;20137;-76
2023/04/10 04:12:38;;;;;;;72.35;35.90;;;1.20;99.90;;;1.91;100.00;101517.06;5029060;28;20048;-76
2023/04/10 04:15:23;;;;;;;83.63;37.67;;;1.10;99.90;;;2.06;100.00;101518.34;5058791;28;20059;-76
2023/04/10 04:17:57;;;;;;;84.18;38.28;;;1.30;99.90;;;2.17;100.00;101503.09;5093323;28;20037;-77
2023/04/10 04:20:39;;;;;;;87.63;40.00;;;1.50;99.90;;;2.37;100.00;101512.00;5079685;28;20431;-75
2023/04/10 04:23:31;;;;;;;89.80;41.33;;;1.60;99.90;;;2.24;100.00;101480.81;5046239;28;20041;-75
2023/04/10 04:26:23;;;;;;;81.03;37.47;;;1.70;99.90;;;2.36;100.00;101492.28;5053827;28;20048;-74
2023/04/10 04:29:01;;;;;;;85.43;40.22;;;1.70;99.90;;;2.46;100.00;101504.94;5072802;28;20036;-76
2023/04/10 04:31:40;;;;;;;;;;;1.80;99.90;;;2.52;100.00;101507.03;5076055;28;20040;-75
2023/04/10 04:34:20;;;;;;;72.55;34.20;;;1.80;99.90;;;2.60;100.00;101509.88;5084540;28;19924;-78
2023/04/10 04:37:05;;;;;;;72.75;35.85;;;1.90;99.90;;;2.42;100.00;101494.44;5070567;28;20036;-75
2023/04/10 04:39:44;;;;;;;72.72;33.88;;;1.80;99.90;;;2.32;100.00;101498.97;5045081;28;20128;-76
2023/04/10 04:42:30;;;;;;;74.63;35.85;;;1.70;99.90;;;2.35;100.00;101485.22;5060428;28;20055;-76
2023/04/10 04:45:20;;;;;;;77.80;36.65;;;1.70;99.90;;;2.52;100.00;101504.34;5047223;28;20516;-77
2023/04/10 04:48:16;;;;;;;80.80;39.25;;;1.70;99.90;;;2.57;100.00;101513.72;5030314;28;20679;-77
2023/04/10 04:51:02;;;;;;;80.30;40.03;;;1.70;99.90;;;2.55;100.00;101515.72;5046810;28;20123;-78
2023/04/10 04:53:50;;;;;;;80.60;37.88;;;1.80;99.90;;;2.57;100.00;101502.06;5050716;28;20139;-79
2023/04/10 04:56:35;;;;;;;81.53;37.85;;;1.90;99.90;;;2.78;100.00;101509.16;5052987;28;20443;-78
2023/04/10 04:59:20;;;;;;;78.22;38.53;;;2.10;99.90;;;3.08;100.00;101504.53;5053911;28;20036;-78
2023/04/10 05:02:02;;;;;;;79.03;39.03;;;2.10;99.90;;;3.01;100.00;101499.75;5068289;28;20485;-77
2023/04/10 05:04:58;;;;;;;83.93;39.15;;;2.10;99.90;;;2.95;100.00;101503.03;5042078;28;20044;-77
2023/04/10 05:07:39;;;;;;;83.30;39.83;;;2.10;99.90;;;2.96;100.00;101507.41;5040856;28;20453;-77
2023/04/10 05:10:15;;;;;;;80.05;38.65;;;2.20;99.90;;;3.10;100.00;101510.63;5060189;28;20039;-77
2023/04/10 05:12:42;;;;;;;77.40;37.10;;;2.40;99.90;;;3.27;100.00;101506.31;5053272;28;20041;-77
2023/04/10 05:15:21;;;;;;;73.68;36.22;;;2.50;99.90;;;3.57;100.00;101518.69;5053263;28;20032;-77
2023/04/10 05:18:11;;;;;;;74.37;37.23;;;2.70;99.90;;;3.70;100.00;101506.69;5063399;28;20044;-78
2023/04/10 05:20:54;;;;;;;78.40;39.10;;;2.80;99.90;;;3.82;100.00;101513.59;5056248;28;20064;-77
2023/04/10 05:23:40;;;;;;;85.57;39.90;;;2.80;99.90;;;3.76;100.00;101505.25;5044192;28;20033;-78
2023/04/10 05:26:28;;;;;;;74.15;39.03;;;2.90;99.90;;;3.82;100.00;101518.13;5058783;28;20032;-78
2023/04/10 05:29:12;;;;;;;76.38;36.25;;;2.90;99.90;;;3.84;100.00;101511.59;5061063;28;20039;-78
2023/04/10 05:32:10;;;;;;;74.45;36.80;;;3.00;99.90;;;3.95;100.00;101510.53;5021275;28;20419;-79
2023/04/10 05:35:09;;;;;;;75.63;36.30;;;3.00;99.90;;;4.05;100.00;101507.78;5036370;28;20041;-78
2023/04/10 05:37:43;;;;;;;67.60;34.75;;;3.10;99.90;;;4.09;100.00;101495.66;5038802;28;20062;-77
2023/04/10 05:40:28;;;;;;;69.03;35.13;;;3.20;99.90;;;4.28;100.00;101504.63;5060443;28;20515;-77
2023/04/10 05:43:26;;;;;;;72.13;34.38;;;3.40;99.90;;;4.52;100.00;101516.66;5053721;28;20036;-77
2023/04/10 05:46:27;;;;;;;71.75;34.53;;;3.60;99.90;;;4.79;100.00;101512.16;4983270;28;20058;-78
2023/04/10 05:49:12;;;;;;;66.38;32.83;;;3.90;99.90;;;4.98;100.00;101516.50;5051975;28;20613;-77
2023/04/10 05:51:49;;;;;;;63.60;31.98;;;4.10;99.90;;;5.16;100.00;101524.56;5048100;28;20028;-76
2023/04/10 05:54:29;;;;;;;56.10;31.23;;;4.30;99.90;;;5.41;100.00;101512.00;5059431;28;20028;-76
2023/04/10 05:57:17;;;;;;;56.80;28.77;;;4.60;99.90;;;5.61;100.00;101523.47;5061678;28;20384;-76
2023/04/10 06:00:18;;;;;;;;;;;4.90;99.90;;;5.99;100.00;101523.09;5076444;28;20503;-78
2023/04/10 06:03:06;;;;;;;51.08;27.65;;;5.20;99.90;;;6.01;100.00;101482.31;5051096;28;19916;-77
2023/04/10 06:05:45;;;;;;;48.03;27.40;;;5.40;99.90;;;6.08;100.00;101491.47;5051237;28;20071;-77
2023/04/10 06:08:11;;;;;;;44.83;26.92;;;5.60;99.90;;;6.32;100.00;101511.47;5065589;28;20055;-77
2023/04/10 06:10:37;;;;;;;45.40;26.10;;;5.70;99.90;;;6.51;100.00;101509.47;5072557;28;20101;-76
2023/04/10 06:13:03;;;;;;;42.63;24.15;;;5.90;99.90;;;6.50;100.00;101488.81;5077069;28;20547;-75
2023/04/10 06:15:29;;;;;;;41.97;25.20;;;6.00;99.90;;;6.77;100.00;101514.75;5040251;28;20028;-76
2023/04/10 06:17:56;;;;;;;42.70;24.33;;;6.10;99.90;;;6.83;100.00;101507.78;5054828;28;20045;-76
2023/04/10 06:20:22;;;;;;;45.10;24.58;;;6.30;99.90;;;6.82;100.00;101506.94;5059987;28;20143;-77
2023/04/10 06:22:50;;;;;;;44.05;24.23;;;6.30;99.90;;;6.98;100.00;101500.66;5042630;28;20029;-76
2023/04/10 06:25:17;;;;;;;42.15;24.42;;;6.40;99.90;;;7.12;100.00;101500.94;5034190;28;20646;-77
2023/04/10 06:27:42;;;;;;;42.80;24.75;;;6.50;99.90;;;7.14;100.00;101488.91;5066993;28;20380;-76
2023/04/10 06:30:10;;;;;;;41.45;23.35;;;6.70;99.90;;;7.38;99.40;101489.84;5052090;28;20025;-78
2023/04/10 06:32:36;;;;;;;41.05;22.77;;;6.80;99.90;;;7.39;97.32;101482.53;5035789;28;20056;-76
2023/04/10 06:35:02;;;;;;;38.78;22.10;;;6.90;99.90;;;7.67;96.66;101487.50;5036670;28;20171;-78
2023/04/10 06:37:32;;;;;;;36.50;21.83;;;7.10;99.90;;;7.71;94.77;101475.31;5056992;28;20025;-76
2023/04/10 06:40:10;;;;;;;36.70;21.77;;;7.20;99.90;;;7.68;96.30;101454.75;5081777;28;20476;-77
2023/04/10 06:42:36;;;;;;;36.67;21.10;;;7.40;99.90;;;7.80;95.97;101470.66;5067861;28;20043;-78
2023/04/10 06:45:14;;;;;;;36.17;21.35;;;7.60;99.90;;;7.81;94.64;101475.06;5062130;28;20039;-77
2023/04/10 06:47:39;;;;;;;34.92;20.55;;;7.60;99.90;;;8.00;93.96;101476.50;5066873;28;20041;-76
2023/04/10 06:50:05;;;;;;;33.70;19.98;;;7.70;99.90;;;8.05;91.39;101464.03;5067349;28;20047;-76
2023/04/10 06:52:31;;;;;;;33.88;20.35;;;7.70;99.90;;;8.19;90.22;101465.13;5061303;28;20502;-76
2023/04/10 06:54:57;;;;;;;30.20;19.98;;;7.80;99.90;;;8.21;87.62;101445.94;5063907;28;20536;-76
2023/04/10 06:57:23;;;;;;;33.53;20.35;;;8.00;99.90;;;8.58;88.15;101467.94;5056064;28;20037;-76
2023/04/10 06:59:48;;;;;;;35.33;20.75;;;8.10;99.90;;;8.72;87.73;101458.94;5056365;28;20050;-76
2023/04/10 07:02:14;;;;;;;31.33;19.27;;;8.30;99.90;;;8.94;86.65;101458.25;5053959;28;20041;-76
2023/04/10 07:04:41;;;;;;;32.72;20.15;;;8.50;99.90;;;9.08;83.51;101462.84;5056324;28;20044;-76
2023/04/10 07:07:08;;;;;;;30.80;18.77;;;8.70;99.90;;;9.10;83.12;101455.34;5058248;28;20037;-76
2023/04/10 07:09:34;;;;;;;30.40;19.55;;;8.80;99.90;;;9.41;83.72;101461.63;5063924;28;20044;-75
2023/04/10 07:12:00;;;;;;;29.33;19.02;;;9.00;99.90;;;9.56;83.31;101447.97;5056236;28;20051;-78
2023/04/10 07:14:26;;;;;;;28.55;18.98;;;9.20;99.90;;;9.81;83.79;101442.19;5060484;28;20082;-76
2023/04/10 07:16:52;;;;;;;28.58;18.98;;;9.40;99.90;;;9.99;81.91;101441.75;5050727;28;20041;-78
2023/04/10 07:19:19;;;;;;;29.35;18.30;;;9.60;99.90;;;10.03;79.82;101435.75;5038695;28;20099;-78
2023/04/10 07:21:48;;;;;;;27.13;17.70;;;9.80;99.90;;;10.09;78.85;101436.84;5067490;28;20139;-77
2023/04/10 07:24:16;;;;;;;27.50;17.48;;;9.90;99.90;;;10.20;80.25;101438.19;5064047;28;20037;-78
2023/04/10 07:26:45;;;;;;;27.30;18.30;;;10.00;99.90;;;10.29;78.49;101428.84;5062107;28;20503;-78
2023/04/10 07:29:11;;;;;;;27.42;17.55;;;10.10;99.90;;;10.42;77.10;101421.84;5042658;28;20132;-78
2023/04/10 07:31:37;;;;;;;26.52;16.95;;;10.20;99.90;;;10.49;75.26;101415.41;5056691;28;20037;-78
2023/04/10 07:34:03;;;;;;;25.25;17.02;;;10.30;99.90;;;10.71;75.95;101429.00;5066040;28;20033;-79
2023/04/10 07:36:29;;;;;;;27.52;17.23;;;10.40;99.90;;;10.99;76.62;101416.38;5062528;28;20032;-78
2023/04/10 07:38:55;;;;;;;26.10;16.60;;;10.60;99.90;;;11.26;75.29;101422.84;5063219;28;20091;-78
2023/04/10 07:41:21;;;;;;;22.88;15.63;;;10.90;99.90;;;11.37;75.00;101405.03;5063144;28;20037;-77
2023/04/10 07:43:47;;;;;;;21.95;15.32;;;11.10;99.90;;;11.78;72.33;101392.34;5079789;28;20052;-78
2023/04/10 07:50:50;;;;;;;22.10;14.43;;;11.50;99.90;;;11.86;71.72;101392.13;4985125;28;20412;-76
2023/04/10 07:53:16;;;;;;;21.13;14.93;;;11.70;99.90;;;12.40;70.45;101407.81;5054778;28;20041;-77
2023/04/10 07:55:44;;;;;;;21.83;14.65;;;11.90;99.90;;;12.54;67.02;101400.44;5052640;28;20052;-79
2023/04/10 07:58:10;;;;;;;17.70;12.48;;;12.20;99.90;;;12.48;62.14;101382.97;5057346;28;20121;-77
2023/04/10 08:00:36;;;;;;;18.98;12.38;;;12.40;99.90;;;12.54;60.05;101373.88;5060871;28;20040;-77
2023/04/10 08:03:04;;;;;;;20.30;13.20;;;12.50;99.90;;;12.50;59.65;101367.16;5076254;28;20037;-77
2023/04/10 08:05:30;;;;;;;;;;;12.50;99.90;;;12.66;59.29;101374.09;5064760;28;20068;-76
2023/04/10 08:07:55;;;;;;;18.77;12.50;;;12.50;99.90;;;12.74;57.90;101371.16;5063852;28;20034;-78
2023/04/10 08:10:21;;;;;;;21.05;13.80;;;12.70;99.90;;;12.90;58.53;101367.09;5058154;28;20044;-75
2023/04/10 08:12:47;;;;;;;17.42;11.73;;;12.80;99.90;;;12.97;57.20;101364.31;5064682;28;20397;-76
2023/04/10 08:15:13;;;;;;;17.73;12.20;;;12.90;99.90;;;12.91;56.40;101365.19;5062129;28;20098;-77
2023/04/10 08:17:39;;;;;;;15.95;11.52;;;12.90;99.90;;;12.99;55.54;101351.25;5061092;28;20064;-76
2023/04/10 08:20:06;;;;;;;19.13;12.57;;;12.90;99.90;;;13.25;56.54;101360.41;5040217;28;20440;-76
2023/04/10 08:22:32;;;;;;;17.27;10.93;;;;;;;13.31;54.18;101345.88;5059617;28;20520;-75
2023/04/10 08:24:57;;;;;;;16.27;10.65;;;13.10;99.90;;;13.42;53.66;101344.34;5062710;28;20098;-75
2023/04/10 08:27:24;;;;;;;15.57;11.38;;;;;;;13.69;53.99;101340.63;5055698;28;20044;-76
2023/04/10 08:29:49;;;;;;;16.73;12.32;;;13.30;99.80;;;13.67;53.68;101340.88;5077328;28;20045;-77
2023/04/10 08:32:15;;;;;;;17.63;12.35;;;13.60;99.90;;;13.94;54.80;101351.66;5064947;28;20120;-75
2023/04/10 08:34:41;;;;;;;16.42;11.35;;;13.70;99.90;;;13.98;52.28;101333.69;5062534;28;20530;-78
2023/04/10 08:37:08;;;;;;;15.40;10.50;;;13.90;98.40;;;13.74;52.66;101325.19;5063114;28;20040;-79
2023/04/10 08:39:38;;;;;;;15.75;11.65;;;13.80;98.20;;;14.18;53.45;101336.25;5062293;28;20032;-77
2023/04/10 08:42:06;;;;;;;16.98;11.43;;;13.90;99.10;;;14.14;52.45;101335.03;5058035;28;20063;-78
2023/04/10 08:44:32;;;;;;;14.77;10.57;;;14.10;98.70;;;14.32;50.14;101316.91;5057390;28;20044;-79
2023/04/10 08:46:59;;;;;;;15.95;10.95;;;14.10;96.40;;;14.41;50.81;101321.06;5045187;28;20485;-79
2023/04/10 08:49:54;;;;;;;15.07;10.52;;;14.30;96.80;;;14.45;47.94;101311.31;5048767;28;20036;-78
2023/04/10 08:52:24;;;;;;;15.02;10.80;;;14.30;93.80;;;14.45;48.43;101308.56;5052311;28;20366;-79
2023/04/10 08:54:57;;;;;;;15.63;10.65;;;14.40;94.00;;;14.31;47.77;101307.00;5053976;28;20107;-78
2023/04/10 08:57:26;;;;;;;14.93;10.57;;;14.30;92.80;;;14.10;47.89;101300.88;5052005;28;20492;-78
2023/04/10 08:59:51;;;;;;;14.60;10.75;;;14.20;92.80;;;14.24;47.60;101302.41;5051799;28;20029;-77
2023/04/10 09:02:19;;;;;;;15.63;11.18;;;14.30;92.50;;;14.41;48.54;101309.22;5053669;28;20037;-76
2023/04/10 09:04:49;;;;;;;15.18;10.95;;;14.40;93.40;;;14.76;49.46;101312.28;5050818;28;20047;-77
2023/04/10 09:07:15;;;;;;;15.85;10.77;;;14.50;94.40;;;14.89;47.15;101283.00;5048772;28;20045;-76
2023/04/10 09:09:42;;;;;;;16.88;11.80;;;14.80;92.20;;;15.05;48.66;101290.56;5060747;28;20115;-78
2023/04/10 09:12:07;;;;;;;15.40;10.68;;;14.90;93.30;;;14.89;46.88;101286.56;5057306;28;20078;-76
2023/04/10 09:14:35;;;;;;;16.27;11.20;;;15.00;91.60;;;14.73;47.40;101281.69;5057472;28;22124;-77
2023/04/10 09:17:13;;;;;;;16.67;11.13;;;14.80;92.00;;;14.85;47.77;101284.50;5056478;28;20021;-77
2023/04/10 09:19:39;;;;;;;15.07;10.68;;;14.80;92.40;;;15.18;46.69;101278.56;5067314;28;20063;-76
2023/04/10 09:22:06;;;;;;;14.95;10.35;;;15.00;91.40;;;15.28;47.28;101261.53;5059038;28;20044;-77
2023/04/10 09:24:39;;;;;;;16.60;11.23;;;15.20;92.00;;;15.26;45.81;101271.91;5056240;28;20415;-77
2023/04/10 09:27:06;;;;;;;15.05;11.68;;;15.20;90.50;;;15.38;48.06;101283.81;5061794;28;20078;-75
2023/04/10 09:29:59;;;;;;;13.70;9.63;;;15.30;92.60;;;15.30;45.51;101256.63;5062562;28;20470;-77
2023/04/10 09:32:43;;;;;;;14.70;10.52;;;15.30;90.20;;;15.47;46.19;101254.03;5061246;28;20134;-77
2023/04/10 09:35:15;;;;;;;15.50;10.45;;;15.30;90.70;;;15.52;44.75;101245.09;5062271;28;20032;-79
2023/04/10 09:37:44;;;;;;;13.50;10.15;;;15.50;89.00;;;15.80;44.97;101240.84;5061319;28;20480;-78
2023/04/10 09:40:24;;;;;;;14.68;9.80;;;15.60;89.60;;;15.85;43.85;101227.22;5059374;28;20048;-78
2023/04/10 09:42:50;;;;;;;15.02;10.88;;;15.80;87.20;;;15.60;44.66;101198.00;5062698;28;20462;-79
2023/04/10 09:45:19;;;;;;;14.57;10.15;;;15.70;88.50;;;15.64;44.59;101228.63;5052750;28;20380;-77
2023/04/10 09:48:18;;;;;;;15.70;10.63;;;15.70;87.70;;;15.60;43.54;101208.19;5036743;28;20051;-77
2023/04/10 09:50:44;;;;;;;14.07;9.52;;;15.70;85.60;;;15.41;43.10;101196.44;5023671;28;20054;-78
2023/04/10 09:53:18;;;;;;;13.50;8.95;;;15.60;84.00;;;15.20;43.54;101165.66;5065686;28;20032;-79
2023/04/10 09:55:46;;;;;;;14.27;9.60;;;15.50;84.00;;;15.59;43.20;101188.09;5060237;28;20136;-77
2023/04/10 09:58:13;;;;;;;12.88;9.45;;;15.60;84.50;;;15.82;43.23;101205.69;5065995;28;20122;-77
2023/04/10 10:00:44;;;;;;;14.90;9.43;;;15.70;84.80;;;15.60;41.97;101178.75;5056869;28;20059;-77
2023/04/10 10:03:15;;;;;;;11.80;8.30;;;15.70;82.20;;;15.98;41.23;101171.13;5062799;28;20041;-77
2023/04/10 10:05:47;;;;;;;13.52;9.48;;;16.20;80.40;;;16.54;40.86;101151.38;5060332;28;20044;-78
2023/04/10 10:08:14;;;;;;;13.63;9.32;;;;;;;16.97;39.97;101150.03;5051007;28;20439;-78
2023/04/10 10:10:53;;;;;;;13.30;8.67;;;16.90;78.30;;;17.05;39.28;101129.53;5055923;28;20040;-78
2023/04/10 10:13:34;;;;;;;14.50;9.65;;;17.70;74.60;;;17.30;38.51;101139.31;5065287;28;20120;-78
2023/04/10 10:16:07;;;;;;;11.82;8.50;;;;;;;18.37;36.91;101134.78;5068537;28;20040;-78
2023/04/10 10:18:57;;;;;;;11.82;8.93;;;17.80;72.40;;;18.64;36.11;101132.06;5061125;28;20072;-79
2023/04/10 10:21:26;;;;;;;12.23;8.73;;;18.90;70.70;;;18.71;35.52;101126.31;5058349;28;20089;-78
2023/04/10 10:23:57;;;;;;;13.02;8.57;;;18.90;68.10;;;18.78;35.65;101115.06;5066254;28;20036;-79
2023/04/10 10:26:24;;;;;;;11.80;8.88;;;19.00;68.10;;;18.87;34.55;101101.63;5063442;28;20036;-78
2023/04/10 10:28:54;;;;;;;13.57;9.70;;;19.00;65.60;;;19.43;33.87;101097.69;5068551;28;20055;-79
2023/04/10 10:31:22;;;;;;;12.30;8.90;;;19.70;64.90;;;19.78;35.43;101121.16;5068262;28;20036;-77
2023/04/10 10:33:51;;;;;;;12.63;9.15;;;19.80;67.00;;;20.10;33.98;101098.09;5069409;28;20610;-78